Time;durP1;ratioP1;P1;durP2;ratioP2;P2;SDS_P1;SDS_P2;PMS_P1;PMS_P2;Temp;Humidity;BMP_temperature;BMP_pressure;BME280_temperature;BME280_humidity;BME280_pressure;Samples;Min_cycle;Max_cycle;Signal;HPM_P1;HPM_P2
2022/06/02 00:00:11;;;;;;;930.50;858.47;;;6.70;89.10;;;;;;5019311;28;20048;-68
2022/06/02 00:02:58;;;;;;;952.65;878.60;;;6.70;89.10;;;;;;5021897;28;20133;-68
2022/06/02 00:05:58;;;;;;;977.67;898.60;;;6.70;89.30;;;;;;5007826;28;20045;-68
2022/06/02 00:08:56;;;;;;;937.90;866.35;;;6.60;89.40;;;;;;5017219;28;20486;-68
2022/06/02 00:11:59;;;;;;;954.10;877.92;;;6.60;89.40;;;;;;5024088;28;20548;-68
2022/06/02 00:14:39;;;;;;;932.20;859.72;;;6.50;89.40;;;;;;4988896;28;20049;-68
2022/06/02 00:17:07;;;;;;;933.75;862.67;;;6.50;89.40;;;;;;5021736;28;20087;-68
2022/06/02 00:19:39;;;;;;;924.33;850.10;;;6.40;89.30;;;;;;5028628;28;20132;-68
2022/06/02 00:22:14;;;;;;;937.45;867.38;;;6.40;89.40;;;;;;5008575;28;20333;-68
2022/06/02 00:24:47;;;;;;;936.22;862.30;;;6.40;89.50;;;;;;5023823;28;20040;-68
2022/06/02 00:27:28;;;;;;;955.33;879.08;;;6.30;89.70;;;;;;5023051;28;20100;-68
2022/06/02 00:30:07;;;;;;;905.25;836.30;;;6.30;89.60;;;;;;5018826;28;20132;-68
2022/06/02 00:32:45;;;;;;;933.10;860.65;;;6.30;89.50;;;;;;5022509;28;20046;-68
2022/06/02 00:36:05;;;;;;;921.85;852.05;;;6.20;89.40;;;;;;5022970;28;20052;-68
2022/06/02 00:38:34;;;;;;;859.47;794.85;;;6.20;89.40;;;;;;4981915;28;20052;-68
2022/06/02 00:41:22;;;;;;;853.58;790.00;;;6.20;89.40;;;;;;5014968;28;20045;-68
2022/06/02 00:44:02;;;;;;;884.33;819.17;;;6.20;89.50;;;;;;5016821;28;20077;-68
2022/06/02 00:46:34;;;;;;;866.72;801.97;;;6.20;89.40;;;;;;5027126;28;20037;-68
2022/06/02 00:49:05;;;;;;;922.45;848.30;;;6.20;89.40;;;;;;5032065;28;20045;-68
2022/06/02 00:51:40;;;;;;;961.75;889.17;;;6.20;89.40;;;;;;5023381;28;20065;-68
2022/06/02 00:57:31;;;;;;;;;;;6.10;89.50;;;;;;5018937;28;20038;-68
2022/06/02 01:00:19;;;;;;;900.72;829.38;;;6.10;89.50;;;;;;5039094;28;19924;-68
2022/06/02 01:03:05;;;;;;;816.65;754.58;;;6.10;89.80;;;;;;4997371;28;20038;-68
2022/06/02 01:05:50;;;;;;;876.85;810.60;;;6.00;89.70;;;;;;5026748;28;20049;-68
2022/06/02 01:08:45;;;;;;;885.92;821.15;;;6.00;89.60;;;;;;5027933;28;20045;-68
2022/06/02 01:11:38;;;;;;;908.70;839.42;;;6.00;89.50;;;;;;5008267;28;20050;-68
2022/06/02 01:14:31;;;;;;;918.33;846.60;;;6.00;89.60;;;;;;5026324;28;20049;-68
2022/06/02 01:17:23;;;;;;;923.45;850.55;;;6.00;89.60;;;;;;5022012;28;20080;-68
2022/06/02 01:19:48;;;;;;;867.83;801.53;;;6.00;89.90;;;;;;5024598;28;20549;-68
2022/06/02 01:22:29;;;;;;;936.27;859.53;;;6.00;89.90;;;;;;5003421;28;20171;-68
2022/06/02 01:25:07;;;;;;;923.28;851.55;;;6.00;89.90;;;;;;5026531;28;20060;-68
2022/06/02 01:28:03;;;;;;;888.88;819.70;;;5.90;89.90;;;;;;5017030;28;20050;-68
2022/06/02 01:30:40;;;;;;;903.17;833.13;;;5.90;90.00;;;;;;5024311;28;20030;-68
2022/06/02 01:33:21;;;;;;;906.50;838.22;;;5.90;90.20;;;;;;5019737;28;20042;-68
2022/06/02 01:36:29;;;;;;;895.60;827.55;;;5.80;90.30;;;;;;5025650;28;20493;-68
2022/06/02 01:39:23;;;;;;;932.08;856.25;;;5.80;90.40;;;;;;5035572;28;20041;-68
2022/06/02 01:42:18;;;;;;;916.03;845.53;;;5.80;90.50;;;;;;5028007;28;20416;-68
2022/06/02 01:44:59;;;;;;;886.15;818.05;;;5.70;90.40;;;;;;5027848;28;20103;-68
2022/06/02 01:47:35;;;;;;;853.95;789.08;;;5.70;90.40;;;;;;5019110;28;20068;-68
2022/06/02 01:50:07;;;;;;;877.63;811.00;;;5.70;90.40;;;;;;5009806;28;20564;-68
2022/06/02 01:52:42;;;;;;;957.53;877.80;;;5.80;90.30;;;;;;5020087;28;20054;-68
2022/06/02 01:55:35;;;;;;;901.08;828.42;;;5.80;90.30;;;;;;5026617;28;20065;-68
2022/06/02 01:58:34;;;;;;;954.92;876.10;;;5.90;90.40;;;;;;5024734;28;20119;-68
2022/06/02 02:01:27;;;;;;;914.92;845.30;;;6.00;90.40;;;;;;5038128;28;20034;-68
2022/06/02 02:04:17;;;;;;;888.03;818.13;;;6.00;90.40;;;;;;5041001;28;20255;-68
2022/06/02 02:06:52;;;;;;;937.47;864.67;;;6.00;90.40;;;;;;5010250;28;20068;-68
2022/06/02 02:09:31;;;;;;;908.78;837.70;;;6.10;90.70;;;;;;5017486;28;20540;-68
2022/06/02 02:12:00;;;;;;;967.00;886.55;;;6.10;90.70;;;;;;5020466;28;20041;-68
2022/06/02 02:14:53;;;;;;;945.55;870.88;;;6.10;90.80;;;;;;5004718;28;20080;-68
2022/06/02 02:17:42;;;;;;;941.15;867.53;;;6.10;90.60;;;;;;5021170;28;20069;-68
2022/06/02 02:20:27;;;;;;;907.35;835.03;;;6.00;90.50;;;;;;5004988;28;20037;-68
2022/06/02 02:23:11;;;;;;;869.05;802.42;;;6.00;90.70;;;;;;5022815;28;20035;-68
2022/06/02 02:25:46;;;;;;;886.88;819.60;;;5.90;90.50;;;;;;5026569;28;20053;-68
2022/06/02 02:28:37;;;;;;;914.25;841.40;;;5.90;90.50;;;;;;5033397;28;20494;-68
2022/06/02 02:31:38;;;;;;;866.70;796.85;;;5.80;90.60;;;;;;5000743;28;20072;-68
2022/06/02 02:34:34;;;;;;;838.63;774.95;;;5.80;90.80;;;;;;5022170;28;20470;-68
2022/06/02 02:37:19;;;;;;;;;;;5.80;90.90;;;;;;5013086;28;20739;-68
2022/06/02 02:40:03;;;;;;;862.83;790.25;;;5.70;90.90;;;;;;5038961;28;19972;-68
2022/06/02 02:42:33;;;;;;;943.85;865.97;;;5.70;91.20;;;;;;5022277;28;20038;-68
2022/06/02 02:45:01;;;;;;;914.25;840.03;;;5.70;91.20;;;;;;5008768;28;20386;-68
2022/06/02 02:47:46;;;;;;;936.63;859.30;;;5.70;91.20;;;;;;5040420;28;20579;-68
2022/06/02 02:50:24;;;;;;;835.65;768.58;;;5.70;91.20;;;;;;5025617;28;20084;-68
2022/06/02 02:53:00;;;;;;;885.63;817.38;;;5.60;91.20;;;;;;5023870;28;20107;-68
2022/06/02 02:55:43;;;;;;;962.42;881.72;;;5.60;91.10;;;;;;5003491;28;20050;-68
2022/06/02 02:58:13;;;;;;;922.42;848.15;;;5.60;91.20;;;;;;5004372;28;20107;-68
2022/06/02 03:00:52;;;;;;;942.33;863.15;;;5.60;91.20;;;;;;5019233;28;20096;-68
2022/06/02 03:03:23;;;;;;;863.97;794.65;;;5.50;91.40;;;;;;5007350;28;20049;-68
2022/06/02 03:06:10;;;;;;;856.85;791.33;;;5.50;91.20;;;;;;4997852;28;20481;-68
2022/06/02 03:08:54;;;;;;;893.35;820.75;;;5.40;91.20;;;;;;5024504;28;20092;-68
2022/06/02 03:11:50;;;;;;;883.15;814.08;;;5.40;91.30;;;;;;5017157;28;20053;-68
2022/06/02 03:14:28;;;;;;;812.10;750.28;;;5.40;91.30;;;;;;5020123;28;20038;-68
2022/06/02 03:17:22;;;;;;;916.63;845.10;;;5.40;91.30;;;;;;5015636;28;20034;-68
2022/06/02 03:20:23;;;;;;;860.92;793.63;;;5.40;91.20;;;;;;4997511;28;20537;-68
2022/06/02 03:22:57;;;;;;;884.70;812.78;;;5.40;91.20;;;;;;5017272;28;20103;-68
2022/06/02 03:25:26;;;;;;;928.58;853.83;;;5.50;91.20;;;;;;5008731;28;20041;-68
2022/06/02 03:28:16;;;;;;;837.10;773.72;;;5.50;91.30;;;;;;5015114;28;20049;-68
2022/06/02 03:31:04;;;;;;;908.15;837.05;;;5.50;91.40;;;;;;5018155;28;20494;-68
2022/06/02 03:34:07;;;;;;;927.80;852.42;;;5.50;91.20;;;;;;5019848;28;20088;-68
2022/06/02 03:37:14;;;;;;;879.03;809.08;;;5.60;91.40;;;;;;5017370;28;20490;-68
2022/06/02 03:40:01;;;;;;;882.88;810.50;;;5.60;91.30;;;;;;4993457;28;20045;-68
2022/06/02 03:43:11;;;;;;;821.28;757.28;;;5.50;91.30;;;;;;5023677;28;20044;-68
2022/06/02 03:46:00;;;;;;;864.28;797.20;;;5.50;91.50;;;;;;4986793;28;20042;-68
2022/06/02 03:48:44;;;;;;;865.30;796.72;;;5.50;91.50;;;;;;5018944;28;20037;-68
2022/06/02 03:51:55;;;;;;;847.67;781.15;;;5.50;91.40;;;;;;5020237;28;20095;-68
2022/06/02 03:54:30;;;;;;;893.38;819.92;;;5.60;91.50;;;;;;5013202;28;20058;-68
2022/06/02 03:57:31;;;;;;;887.50;814.92;;;5.60;91.50;;;;;;5006380;28;20053;-68
2022/06/02 04:00:17;;;;;;;904.97;834.97;;;5.60;91.50;;;;;;5001022;28;20441;-68
2022/06/02 04:02:56;;;;;;;936.30;859.63;;;5.70;91.60;;;;;;5016230;28;20038;-68
2022/06/02 04:06:03;;;;;;;884.13;813.75;;;5.70;91.60;;;;;;5003357;28;20041;-68
2022/06/02 04:08:56;;;;;;;914.92;842.17;;;5.80;91.60;;;;;;4961310;28;20037;-68
2022/06/02 04:14:50;;;;;;;884.00;814.15;;;5.90;91.70;;;;;;5020676;28;20407;-68
2022/06/02 04:17:43;;;;;;;923.72;849.17;;;6.00;91.70;;;;;;5017633;28;20046;-68
2022/06/02 04:20:36;;;;;;;970.17;889.75;;;6.10;91.70;;;;;;5000675;28;20042;-68
2022/06/02 04:23:07;;;;;;;891.90;825.25;;;6.20;91.60;;;;;;5020320;28;20053;-68
2022/06/02 04:25:50;;;;;;;879.78;814.70;;;6.30;91.80;;;;;;5024797;28;20179;-68
2022/06/02 04:28:43;;;;;;;879.47;811.22;;;6.40;91.70;;;;;;5021307;28;20055;-68
2022/06/02 04:31:24;;;;;;;878.80;810.97;;;6.50;91.80;;;;;;5042455;28;20127;-68
2022/06/02 04:34:10;;;;;;;823.20;764.53;;;6.60;91.80;;;;;;5022289;28;20065;-69
2022/06/02 04:36:57;;;;;;;932.80;863.88;;;6.80;91.80;;;;;;5020923;28;20052;-68
2022/06/02 04:39:53;;;;;;;915.65;845.17;;;7.50;92.60;;;;;;5011375;28;20513;-68
2022/06/02 04:42:48;;;;;;;986.40;902.08;;;8.30;92.60;;;;;;5022087;28;20091;-68
2022/06/02 04:45:32;;;;;;;984.53;896.53;;;8.70;91.10;;;;;;5021640;28;20067;-68
2022/06/02 04:48:11;;;;;;;869.17;788.78;;;8.80;90.60;;;;;;5009656;28;20056;-68
2022/06/02 04:50:41;;;;;;;862.75;790.97;;;9.10;90.60;;;;;;5015449;28;20052;-68
2022/06/02 04:53:18;;;;;;;819.78;743.42;;;9.30;90.40;;;;;;5027130;28;20345;-68
2022/06/02 04:56:10;;;;;;;829.35;748.53;;;9.50;90.30;;;;;;4998937;28;20061;-68
2022/06/02 04:58:54;;;;;;;808.83;733.33;;;9.80;90.60;;;;;;5020861;28;20412;-69
2022/06/02 05:01:38;;;;;;;788.08;708.05;;;10.70;90.80;;;;;;5009685;28;20045;-69
2022/06/02 05:04:31;;;;;;;722.25;616.95;;;11.80;87.90;;;;;;5019828;28;20053;-69
2022/06/02 05:07:09;;;;;;;753.78;627.70;;;12.40;85.90;;;;;;5009253;28;20072;-69
2022/06/02 05:10:06;;;;;;;843.97;652.40;;;13.30;83.50;;;;;;5022345;28;20511;-69
2022/06/02 05:12:55;;;;;;;890.10;667.03;;;14.40;80.40;;;;;;5008810;28;20452;-69
2022/06/02 05:15:45;;;;;;;979.70;708.00;;;15.20;76.70;;;;;;5026567;28;20295;-69
2022/06/02 05:18:42;;;;;;;847.20;598.47;;;15.90;73.80;;;;;;5011635;28;20315;-69
2022/06/02 05:21:44;;;;;;;961.47;691.63;;;16.50;70.90;;;;;;5014093;28;20367;-69
2022/06/02 05:24:48;;;;;;;864.07;598.90;;;17.00;69.00;;;;;;4993013;28;20325;-69
2022/06/02 05:27:32;;;;;;;1007.57;716.87;;;17.40;67.30;;;;;;5004355;28;20638;-69
2022/06/02 05:30:19;;;;;;;1066.17;728.57;;;17.80;66.40;;;;;;5030271;28;20292;-69
2022/06/02 05:33:07;;;;;;;966.37;677.87;;;18.10;66.90;;;;;;5031042;28;20288;-69
2022/06/02 05:35:45;;;;;;;1108.40;787.87;;;18.40;63.70;;;;;;5036861;28;20315;-69
2022/06/02 05:38:32;;;;;;;1057.43;745.17;;;18.60;64.00;;;;;;5025114;28;20315;-69
2022/06/02 05:41:18;;;;;;;1117.20;755.80;;;18.80;63.40;;;;;;5027960;28;20768;-69
2022/06/02 05:43:56;;;;;;;1212.93;782.77;;;19.00;60.90;;;;;;5039379;28;20780;-69
2022/06/02 05:46:30;;;;;;;1139.50;726.27;;;18.90;60.50;;;;;;5010782;28;20287;-69
2022/06/02 05:49:09;;;;;;;1144.55;762.47;;;18.80;61.80;;;;;;5027404;28;20675;-69
2022/06/02 05:51:48;;;;;;;1193.57;772.77;;;18.90;61.90;;;;;;5022906;28;20052;-69
2022/06/02 05:54:29;;;;;;;1200.63;773.50;;;18.90;61.20;;;;;;5026402;28;20296;-69
2022/06/02 05:57:07;;;;;;;1049.20;717.73;;;18.70;60.90;;;;;;5040499;28;20646;-69
2022/06/02 05:59:51;;;;;;;1156.70;767.67;;;18.90;60.10;;;;;;5025946;28;20286;-69
2022/06/02 06:02:33;;;;;;;1214.67;798.07;;;18.90;59.80;;;;;;5026888;28;20760;-69
2022/06/02 06:05:20;;;;;;;1069.10;752.90;;;18.80;58.40;;;;;;5027400;28;20359;-69
2022/06/02 06:08:08;;;;;;;1205.80;826.67;;;18.90;61.10;;;;;;5027201;28;20280;-69
2022/06/02 06:10:52;;;;;;;1323.20;844.50;;;19.10;60.40;;;;;;5022451;28;20383;-69
2022/06/02 06:13:27;;;;;;;1275.03;838.90;;;18.90;58.20;;;;;;5027016;28;20300;-69
2022/06/02 06:15:58;;;;;;;1268.45;837.75;;;18.80;58.90;;;;;;5026458;28;20280;-69
2022/06/02 06:18:43;;;;;;;1194.37;806.43;;;18.90;59.60;;;;;;5014228;28;20132;-69
2022/06/02 06:21:21;;;;;;;1233.93;837.63;;;18.60;58.80;;;;;;5023360;28;20844;-69
2022/06/02 06:24:01;;;;;;;1289.23;850.87;;;18.60;59.90;;;;;;5042760;28;20321;-69
2022/06/02 06:26:50;;;;;;;1304.50;792.20;;;18.80;59.20;;;;;;5025778;28;20284;-69
2022/06/02 06:29:43;;;;;;;1280.47;839.87;;;18.80;56.50;;;;;;5024804;28;20375;-69
2022/06/02 06:32:18;;;;;;;1273.63;871.57;;;18.40;58.90;;;;;;5011041;28;20287;-69
2022/06/02 06:35:12;;;;;;;1510.78;929.67;;;17.90;59.00;;;;;;5023653;28;20800;-69
2022/06/02 06:38:02;;;;;;;1384.23;870.60;;;17.60;57.30;;;;;;5003879;28;20077;-69
2022/06/02 06:40:50;;;;;;;1299.40;831.93;;;17.10;59.30;;;;;;5008958;28;20280;-69
2022/06/02 06:43:37;;;;;;;1295.90;889.97;;;16.40;60.30;;;;;;5017360;28;20427;-69
2022/06/02 06:46:30;;;;;;;1454.90;907.97;;;15.80;61.90;;;;;;5025912;28;20326;-69
2022/06/02 06:49:09;;;;;;;1344.87;919.40;;;15.40;62.00;;;;;;5024560;28;20647;-69
2022/06/02 06:51:54;;;;;;;1300.03;860.73;;;15.00;63.00;;;;;;5004448;28;20299;-69
2022/06/02 06:54:44;;;;;;;1277.27;892.97;;;15.00;63.70;;;;;;5023930;28;20331;-69
2022/06/02 06:57:18;;;;;;;1204.10;837.00;;;15.20;62.90;;;;;;5007344;28;20307;-69
2022/06/02 06:59:55;;;;;;;1220.88;862.47;;;15.40;63.00;;;;;;5025941;28;20287;-69
2022/06/02 07:02:32;;;;;;;1308.80;908.07;;;15.40;63.40;;;;;;5022364;28;20041;-69
2022/06/02 07:05:16;;;;;;;1236.50;901.10;;;15.40;62.90;;;;;;5024538;28;20384;-69
2022/06/02 07:08:03;;;;;;;1302.03;885.40;;;15.40;63.70;;;;;;5034678;28;20349;-69
2022/06/02 07:10:55;;;;;;;1292.00;915.50;;;15.40;63.50;;;;;;5039812;28;20398;-69
2022/06/02 07:13:30;;;;;;;1173.67;849.13;;;15.20;63.60;;;;;;5026272;28;20284;-69
2022/06/02 07:16:08;;;;;;;1321.67;915.40;;;15.00;64.20;;;;;;5025233;28;20359;-69
2022/06/02 07:19:05;;;;;;;1254.20;867.37;;;14.70;64.00;;;;;;5023356;28;20391;-69
2022/06/02 07:21:48;;;;;;;1455.20;912.33;;;14.50;64.20;;;;;;5025708;28;20673;-69
2022/06/02 07:24:51;;;;;;;1442.10;949.43;;;14.40;64.50;;;;;;5025856;28;20363;-70
2022/06/02 07:27:30;;;;;;;1444.53;893.83;;;14.30;64.30;;;;;;5025592;28;20832;-70
2022/06/02 07:30:34;;;;;;;1207.33;872.70;;;14.20;64.70;;;;;;5008897;28;20291;-70
2022/06/02 07:33:37;;;;;;;1150.90;891.23;;;14.30;65.20;;;;;;4974889;28;20284;-70
2022/06/02 07:36:16;;;;;;;1342.67;921.50;;;14.50;64.60;;;;;;5025413;28;20280;-70
2022/06/02 07:39:23;;;;;;;1194.83;891.90;;;14.70;64.20;;;;;;5008862;28;20828;-70
2022/06/02 07:42:02;;;;;;;1211.67;910.10;;;14.80;64.70;;;;;;5019234;28;20351;-70
2022/06/02 07:44:36;;;;;;;1360.20;959.43;;;15.00;64.60;;;;;;5025677;28;20314;-70
2022/06/02 07:47:34;;;;;;;1265.15;911.17;;;15.10;63.10;;;;;;5025420;28;20295;-70
2022/06/02 07:50:35;;;;;;;1321.30;956.30;;;15.10;64.70;;;;;;5022182;28;20053;-70
2022/06/02 07:53:46;;;;;;;1198.77;930.93;;;15.10;64.40;;;;;;4987177;28;20599;-70
2022/06/02 07:56:24;;;;;;;1321.10;914.50;;;15.20;64.10;;;;;;5017222;28;20383;-70
2022/06/02 07:59:28;;;;;;;1291.37;916.97;;;15.40;65.20;;;;;;5041152;28;20300;-70
2022/06/02 08:02:10;;;;;;;1354.23;933.50;;;15.50;63.10;;;;;;4988504;28;20843;-70
2022/06/02 08:04:38;;;;;;;1372.70;968.73;;;15.60;62.90;;;;;;5025434;28;20288;-70
2022/06/02 08:07:16;;;;;;;1250.27;918.33;;;15.70;63.30;;;;;;5025460;28;20288;-70
2022/06/02 08:10:06;;;;;;;1354.07;912.23;;;15.90;63.30;;;;;;5008775;28;20296;-70
2022/06/02 08:12:44;;;;;;;1371.43;925.93;;;16.10;61.20;;;;;;5025209;28;20288;-70
2022/06/02 08:15:28;;;;;;;1294.43;957.93;;;16.20;62.00;;;;;;5024919;28;20280;-70
2022/06/02 08:18:13;;;;;;;1317.57;972.13;;;16.10;61.80;;;;;;5004313;28;20315;-70
2022/06/02 08:20:41;;;;;;;1304.35;974.55;;;16.00;62.60;;;;;;5021034;28;20292;-70
2022/06/02 08:23:14;;;;;;;1374.90;943.83;;;16.00;62.40;;;;;;5025693;28;20171;-70
2022/06/02 08:26:12;;;;;;;1332.60;944.33;;;16.10;63.10;;;;;;5025288;28;20291;-70
2022/06/02 08:29:19;;;;;;;1262.63;939.47;;;16.40;62.90;;;;;;5008469;28;20276;-70
2022/06/02 08:32:04;;;;;;;1331.20;946.73;;;16.20;60.20;;;;;;4986864;28;20351;-70
2022/06/02 08:34:30;;;;;;;;;;;15.90;62.30;;;;;;4971782;28;20295;-70
2022/06/02 08:37:20;;;;;;;1321.57;961.37;;;15.80;63.80;;;;;;5004726;28;19955;-70
2022/06/02 08:40:30;;;;;;;1330.63;961.90;;;15.90;63.80;;;;;;5024746;28;20075;-70
2022/06/02 08:43:30;;;;;;;1377.70;958.47;;;16.30;64.20;;;;;;5003078;28;20273;-70
2022/06/02 08:46:05;;;;;;;1356.70;969.70;;;16.40;62.40;;;;;;5004531;28;20363;-70
2022/06/02 08:48:58;;;;;;;1287.05;986.97;;;16.20;62.90;;;;;;5023508;28;20299;-70
2022/06/02 08:51:42;;;;;;;1395.43;934.70;;;16.00;62.30;;;;;;5018333;28;20048;-70
2022/06/02 08:54:29;;;;;;;1242.57;932.13;;;15.90;62.10;;;;;;5008207;28;20704;-70
2022/06/02 08:57:18;;;;;;;1336.70;948.13;;;15.90;63.40;;;;;;5024450;28;20819;-70
2022/06/02 09:00:18;;;;;;;1309.93;904.77;;;16.20;63.10;;;;;;5025140;28;20863;-70
2022/06/02 09:03:32;;;;;;;1473.73;953.77;;;16.50;63.10;;;;;;5017175;28;20284;-70
2022/06/02 09:06:34;;;;;;;1406.63;944.30;;;16.90;61.00;;;;;;5000015;28;20287;-70
2022/06/02 09:09:32;;;;;;;1353.63;964.13;;;16.70;60.80;;;;;;5008742;28;20280;-70
2022/06/02 09:12:21;;;;;;;1177.10;932.37;;;16.60;60.60;;;;;;5027684;28;20276;-70
2022/06/02 09:15:19;;;;;;;1148.60;922.77;;;16.40;61.60;;;;;;5011831;28;20292;-70
2022/06/02 09:18:16;;;;;;;1300.03;974.83;;;16.40;62.20;;;;;;5026881;28;20507;-70
2022/06/02 09:20:51;;;;;;;1122.13;918.17;;;16.50;61.90;;;;;;5022893;28;20371;-70
2022/06/02 09:23:35;;;;;;;1177.53;905.40;;;16.80;62.50;;;;;;5027993;28;20272;-70
2022/06/02 09:26:39;;;;;;;1163.53;943.00;;;17.00;62.10;;;;;;5011009;28;20131;-70
2022/06/02 09:29:24;;;;;;;1196.33;954.37;;;17.00;61.80;;;;;;5027282;28;20315;-70
2022/06/02 09:32:24;;;;;;;1134.10;920.75;;;17.00;61.40;;;;;;5028620;28;20772;-70
2022/06/02 09:35:08;;;;;;;1133.17;915.43;;;17.20;61.00;;;;;;5009175;28;20532;-70
2022/06/02 09:37:43;;;;;;;1210.77;932.37;;;17.50;61.90;;;;;;5025813;28;21200;-70
2022/06/02 09:40:20;;;;;;;1228.40;910.33;;;17.70;60.30;;;;;;5011882;28;20288;-70
2022/06/02 09:43:07;;;;;;;1184.23;874.07;;;18.10;61.10;;;;;;5043285;28;20359;-70
2022/06/02 09:45:52;;;;;;;1315.40;967.70;;;18.10;58.00;;;;;;5026995;28;20803;-70
2022/06/02 09:48:21;;;;;;;1244.13;955.38;;;18.00;59.30;;;;;;5025737;28;20771;-70
2022/06/02 09:51:14;;;;;;;1184.43;949.23;;;18.00;60.60;;;;;;5026810;28;20110;-70
2022/06/02 09:54:28;;;;;;;1307.70;971.13;;;18.10;60.30;;;;;;5027482;28;20303;-70
2022/06/02 10:00:18;;;;;;;1291.67;979.67;;;18.60;58.70;;;;;;5027654;28;20764;-70
2022/06/02 10:03:03;;;;;;;1355.27;978.90;;;18.80;58.70;;;;;;5011003;28;20295;-70
2022/06/02 10:05:47;;;;;;;1352.70;954.80;;;18.80;56.70;;;;;;5026310;28;20456;-70
2022/06/02 10:08:19;;;;;;;1439.10;959.43;;;18.60;56.40;;;;;;5026980;28;20041;-70
2022/06/02 10:11:00;;;;;;;1332.93;978.87;;;18.40;58.10;;;;;;5010661;28;20328;-70
2022/06/02 10:13:44;;;;;;;1324.67;953.07;;;18.20;57.90;;;;;;5026820;28;20049;-70
2022/06/02 10:16:28;;;;;;;1320.23;926.87;;;18.20;58.10;;;;;;5025963;28;20055;-71
2022/06/02 10:19:13;;;;;;;1366.85;965.50;;;18.20;57.80;;;;;;5023601;28;20501;-70
2022/06/02 10:22:01;;;;;;;1306.63;940.47;;;18.20;57.60;;;;;;5044039;28;20041;-70
2022/06/02 10:24:56;;;;;;;1353.63;971.87;;;18.10;58.50;;;;;;5026459;28;20168;-70
2022/06/02 10:27:28;;;;;;;1393.82;983.65;;;18.30;58.80;;;;;;5026480;28;20050;-70
2022/06/02 10:30:26;;;;;;;1286.47;973.13;;;18.40;58.80;;;;;;5026469;28;20049;-70
2022/06/02 10:33:19;;;;;;;1550.90;986.70;;;18.60;58.30;;;;;;5026971;28;20516;-70
2022/06/02 10:36:27;;;;;;;1459.47;999.00;;;18.80;56.90;;;;;;5009862;28;20282;-70
2022/06/02 10:39:05;;;;;;;1404.23;931.43;;;19.00;56.50;;;;;;4988641;28;20060;-70
2022/06/02 10:42:08;;;;;;;1476.03;965.37;;;19.40;57.20;;;;;;5026912;28;20057;-70
2022/06/02 10:45:12;;;;;;;1385.63;953.40;;;19.40;54.30;;;;;;5026528;28;20080;-70
2022/06/02 10:48:19;;;;;;;1452.63;971.63;;;18.90;55.70;;;;;;5026138;28;20045;-70
2022/06/02 10:51:31;;;;;;;1361.13;954.40;;;18.50;54.80;;;;;;5025173;28;20433;-70
2022/06/02 10:54:22;;;;;;;1319.47;972.23;;;18.30;57.40;;;;;;5022222;28;20088;-70
2022/06/02 10:57:13;;;;;;;1405.33;982.50;;;18.50;57.70;;;;;;5025743;28;20037;-70
2022/06/02 10:59:44;;;;;;;1294.50;938.53;;;18.90;56.90;;;;;;5026369;28;20052;-70
2022/06/02 11:02:19;;;;;;;1406.17;942.50;;;19.00;57.20;;;;;;5026878;28;20394;-70
2022/06/02 11:04:50;;;;;;;1477.38;979.80;;;19.00;55.70;;;;;;5026424;28;20124;-70
2022/06/02 11:07:35;;;;;;;1476.57;976.83;;;18.90;55.80;;;;;;5030182;28;20041;-70
2022/06/02 11:10:19;;;;;;;1416.93;961.63;;;18.90;56.20;;;;;;5025857;28;20068;-70
2022/06/02 11:12:52;;;;;;;1381.83;944.27;;;18.90;56.70;;;;;;5026841;28;20539;-70
2022/06/02 11:16:00;;;;;;;1356.57;986.70;;;19.00;56.80;;;;;;5018649;28;20048;-70
2022/06/02 11:18:29;;;;;;;1482.47;992.97;;;19.40;56.20;;;;;;5041769;28;20040;-70
2022/06/02 11:21:32;;;;;;;1467.90;969.50;;;19.80;55.00;;;;;;5026143;28;20708;-70
2022/06/02 11:24:27;;;;;;;1424.50;992.40;;;20.10;52.70;;;;;;5018806;28;20091;-70
2022/06/02 11:27:17;;;;;;;1500.88;999.90;;;20.00;53.50;;;;;;5014474;28;20121;-70
2022/06/02 11:30:02;;;;;;;1437.33;984.23;;;20.00;53.00;;;;;;5024747;28;20143;-70
2022/06/02 11:32:57;;;;;;;1495.97;999.90;;;19.90;54.20;;;;;;5008833;28;20056;-70
2022/06/02 11:35:49;;;;;;;1554.43;999.90;;;19.70;53.90;;;;;;5034649;28;20037;-70
2022/06/02 11:38:31;;;;;;;1382.53;999.90;;;19.30;53.90;;;;;;4998382;28;20418;-70
2022/06/02 11:41:27;;;;;;;1517.90;998.00;;;18.90;55.00;;;;;;5025807;28;20034;-70
2022/06/02 11:44:20;;;;;;;1450.70;998.67;;;18.80;54.80;;;;;;5008869;28;20044;-70
2022/06/02 11:47:13;;;;;;;1407.20;993.97;;;18.60;56.20;;;;;;5025351;28;20037;-70
2022/06/02 11:50:15;;;;;;;1366.37;985.30;;;18.40;55.90;;;;;;5025706;28;20124;-70
2022/06/02 11:52:48;;;;;;;1441.60;970.83;;;18.40;56.40;;;;;;5013800;28;20091;-70
2022/06/02 11:55:22;;;;;;;1435.43;999.90;;;18.30;56.40;;;;;;5025263;28;20080;-70
2022/06/02 11:58:16;;;;;;;1418.80;999.90;;;18.10;56.10;;;;;;5025271;28;20076;-70
2022/06/02 12:00:57;;;;;;;1342.23;992.27;;;18.00;56.80;;;;;;5025646;28;20041;-70
2022/06/02 12:03:31;;;;;;;1438.73;999.90;;;18.10;57.00;;;;;;5025580;28;20254;-70
2022/06/02 12:06:24;;;;;;;1530.72;994.00;;;18.20;56.80;;;;;;5008869;28;20095;-70
2022/06/02 12:09:09;;;;;;;1387.57;998.27;;;18.20;56.00;;;;;;5025169;28;20081;-70
2022/06/02 12:11:59;;;;;;;1415.20;985.43;;;18.30;56.20;;;;;;5025272;28;20689;-70
2022/06/02 12:14:40;;;;;;;1312.30;989.97;;;18.40;54.90;;;;;;5025269;28;20049;-70
2022/06/02 12:17:24;;;;;;;1345.43;936.90;;;18.50;55.30;;;;;;5020385;28;20041;-70
2022/06/02 12:19:58;;;;;;;1446.28;965.03;;;18.60;56.20;;;;;;5019908;28;20041;-70
2022/06/02 12:22:48;;;;;;;1414.40;992.17;;;18.70;56.20;;;;;;5025566;28;20037;-70
2022/06/02 12:25:42;;;;;;;1380.37;999.90;;;18.80;54.10;;;;;;5032152;28;20049;-70
2022/06/02 12:28:20;;;;;;;1325.43;962.63;;;18.90;54.90;;;;;;5024759;28;20482;-70
2022/06/02 12:31:21;;;;;;;1411.33;999.90;;;18.60;55.10;;;;;;5008463;28;20053;-70
2022/06/02 12:34:11;;;;;;;1429.00;967.77;;;19.20;55.80;;;;;;5011358;28;20053;-70
2022/06/02 12:37:02;;;;;;;1601.87;992.07;;;19.60;54.40;;;;;;5017744;28;20127;-70
2022/06/02 12:39:39;;;;;;;1429.17;979.93;;;20.20;54.20;;;;;;5023330;28;20456;-70
2022/06/02 12:42:45;;;;;;;1673.50;999.90;;;20.50;53.20;;;;;;5027348;28;20037;-70
2022/06/02 12:45:23;;;;;;;1524.75;999.08;;;21.00;51.80;;;;;;5028505;28;20041;-70
2022/06/02 12:48:18;;;;;;;1496.43;999.90;;;21.10;50.90;;;;;;5028581;28;20045;-70
2022/06/02 12:51:10;;;;;;;1525.28;999.90;;;21.20;50.50;;;;;;5028786;28;20432;-70
2022/06/02 12:53:55;;;;;;;1557.57;999.90;;;20.90;50.40;;;;;;5028069;28;20053;-70
2022/06/02 12:56:39;;;;;;;1552.17;999.90;;;20.70;51.80;;;;;;5028528;28;20068;-70
2022/06/02 12:59:23;;;;;;;1470.77;999.90;;;20.80;51.50;;;;;;5016102;28;20072;-70
2022/06/02 13:01:55;;;;;;;1580.90;999.83;;;20.60;50.70;;;;;;5028752;28;20402;-70
2022/06/02 13:05:01;;;;;;;1517.77;999.90;;;20.40;51.00;;;;;;5011879;28;20094;-70
2022/06/02 13:08:05;;;;;;;1467.65;987.13;;;20.40;51.40;;;;;;5025586;28;20430;-70
2022/06/02 13:11:05;;;;;;;1462.13;999.90;;;20.60;50.40;;;;;;4992466;28;20041;-70
2022/06/02 13:13:56;;;;;;;1558.53;999.90;;;20.90;51.70;;;;;;5006583;28;20880;-70
2022/06/02 13:16:52;;;;;;;1548.87;999.90;;;20.90;49.90;;;;;;5005554;28;20456;-70
2022/06/02 13:19:41;;;;;;;1668.63;999.90;;;20.80;50.50;;;;;;5009628;28;20485;-70
2022/06/02 13:22:28;;;;;;;1553.30;999.90;;;20.60;51.30;;;;;;5028550;28;20041;-70
2022/06/02 13:25:09;;;;;;;1573.43;999.90;;;20.60;50.90;;;;;;5016031;28;20045;-70
2022/06/02 13:28:13;;;;;;;1547.27;999.90;;;20.60;50.40;;;;;;5011047;28;20099;-70
2022/06/02 13:30:48;;;;;;;1740.03;999.90;;;20.70;51.30;;;;;;5011579;28;20099;-70
2022/06/02 13:33:44;;;;;;;1492.75;999.90;;;20.90;49.90;;;;;;5028267;28;20259;-70
2022/06/02 13:36:39;;;;;;;1522.97;999.90;;;20.90;49.90;;;;;;5009578;28;20574;-70
2022/06/02 13:39:29;;;;;;;1600.30;999.90;;;21.10;50.60;;;;;;5006443;28;20057;-70
2022/06/02 13:42:27;;;;;;;1511.00;999.90;;;21.10;50.60;;;;;;5011436;28;20302;-70
2022/06/02 13:44:55;;;;;;;1613.83;999.90;;;21.00;50.20;;;;;;5027621;28;20049;-70
2022/06/02 13:47:44;;;;;;;1588.90;999.90;;;20.90;51.00;;;;;;5027583;28;20230;-70
2022/06/02 13:50:38;;;;;;;1481.60;999.90;;;20.80;49.70;;;;;;5011338;28;20064;-70